Time;durP1;ratioP1;P1;durP2;ratioP2;P2;SDS_P1;SDS_P2;PMS_P1;PMS_P2;Temp;Humidity;BMP_temperature;BMP_pressure;BME280_temperature;BME280_humidity;BME280_pressure;Samples;Min_cycle;Max_cycle;Signal;HPM_P1;HPM_P2
2022/04/26 03:36:18;;;;;;;15.10;7.65;;;;;;;;;;5037774;27;89322;-76
2022/04/26 03:38:47;;;;;;;4.68;4.28;;;;;;;;;;5040729;27;90264;-77
2022/04/26 03:41:14;;;;;;;9.88;7.03;;;;;;;;;;5040181;27;89325;-76
2022/04/26 03:43:40;;;;;;;10.63;6.82;;;;;;;;;;5044299;27;89783;-77
2022/04/26 03:46:07;;;;;;;10.48;6.60;;;;;;;;;;5043485;27;89926;-76
2022/04/26 03:48:33;;;;;;;12.20;6.95;;;;;;;;;;5042018;27;89818;-76
2022/04/26 03:51:00;;;;;;;15.18;7.20;;;;;;;;;;5037531;27;89636;-76
2022/04/26 03:53:27;;;;;;;15.18;7.95;;;;;;;;;;5040411;27;88785;-76
2022/04/26 03:55:53;;;;;;;10.45;7.38;;;;;;;;;;5041613;27;89214;-76
2022/04/26 03:58:19;;;;;;;10.98;7.68;;;;;;;;;;5040395;27;88771;-76
2022/04/26 04:00:46;;;;;;;14.32;7.28;;;;;;;;;;5043854;27;91090;-76
2022/04/26 04:03:12;;;;;;;9.13;7.50;;;;;;;;;;5041386;27;92001;-76
2022/04/26 04:05:42;;;;;;;10.07;6.93;;;;;;;;;;5039438;27;88908;-77
2022/04/26 04:08:08;;;;;;;8.48;7.30;;;;;;;;;;5042730;27;89748;-76
2022/04/26 04:10:35;;;;;;;14.15;6.88;;;;;;;;;;5042891;27;89779;-76
2022/04/26 04:13:01;;;;;;;14.32;9.40;;;;;;;;;;5044161;27;88815;-76
2022/04/26 04:15:27;;;;;;;10.18;8.43;;;;;;;;;;5038140;27;89650;-76
2022/04/26 04:17:54;;;;;;;12.73;9.35;;;;;;;;;;5047333;27;90436;-76
2022/04/26 04:20:20;;;;;;;16.92;9.45;;;;;;;;;;5039838;27;88593;-76
2022/04/26 04:22:48;;;;;;;14.05;10.93;;;;;;;;;;5039758;27;89522;-77
2022/04/26 04:25:15;;;;;;;22.23;10.93;;;;;;;;;;5036169;27;90888;-76
2022/04/26 04:27:42;;;;;;;14.77;11.77;;;;;;;;;;5034549;27;91175;-76
2022/04/26 04:30:09;;;;;;;20.05;11.02;;;;;;;;;;5042364;27;90406;-76
2022/04/26 04:32:35;;;;;;;14.98;10.85;;;;;;;;;;5040330;27;91699;-76
2022/04/26 04:35:01;;;;;;;10.68;9.57;;;;;;;;;;5037298;27;89289;-76
2022/04/26 04:37:28;;;;;;;21.95;11.27;;;;;;;;;;5040005;27;90025;-76
2022/04/26 04:39:54;;;;;;;15.30;10.02;;;;;;;;;;5038541;27;90035;-77
2022/04/26 04:42:21;;;;;;;12.90;9.18;;;;;;;;;;5036121;27;90566;-77
2022/04/26 04:44:48;;;;;;;10.77;8.80;;;;;;;;;;5040633;27;92597;-77
2022/04/26 04:47:14;;;;;;;14.07;8.00;;;;;;;;;;5040887;27;89833;-77
2022/04/26 04:49:41;;;;;;;16.35;9.70;;;;;;;;;;5042671;27;88717;-77
2022/04/26 04:52:07;;;;;;;10.63;8.45;;;;;;;;;;5041871;27;90014;-77
2022/04/26 04:54:33;;;;;;;8.73;7.85;;;;;;;;;;5039246;27;89489;-77
2022/04/26 04:57:02;;;;;;;17.17;9.10;;;;;;;;;;5033941;27;90002;-77
2022/04/26 04:59:28;;;;;;;20.42;8.65;;;;;;;;;;5039923;27;88890;-77
2022/04/26 05:01:55;;;;;;;13.90;7.95;;;;;;;;;;5039014;27;88969;-77
2022/04/26 05:04:21;;;;;;;17.02;9.48;;;;;;;;;;5042381;27;88731;-77
2022/04/26 05:06:48;;;;;;;19.77;8.48;;;;;;;;;;5042865;27;89061;-77
2022/04/26 05:09:14;;;;;;;13.18;8.73;;;;;;;;;;5041059;27;89868;-77
2022/04/26 05:11:41;;;;;;;17.23;8.30;;;;;;;;;;5042242;27;91248;-77
2022/04/26 05:14:07;;;;;;;16.73;8.38;;;;;;;;;;5041572;27;90318;-77
2022/04/26 05:16:34;;;;;;;17.05;7.53;;;;;;;;;;5043167;27;88812;-77
2022/04/26 05:19:00;;;;;;;15.10;8.15;;;;;;;;;;5036476;27;88803;-78
2022/04/26 05:21:26;;;;;;;14.52;9.15;;;;;;;;;;5044053;27;89549;-77
2022/04/26 05:26:38;;;;;;;21.23;8.60;;;;;;;;;;5035398;27;89590;-76
2022/04/26 05:29:05;;;;;;;10.48;7.40;;;;;;;;;;5040057;27;87877;-77
2022/04/26 05:31:32;;;;;;;14.95;9.00;;;;;;;;;;5040570;27;88781;-77
2022/04/26 05:33:58;;;;;;;16.35;7.85;;;;;;;;;;5044088;27;89668;-76
2022/04/26 05:36:32;;;;;;;14.32;7.45;;;;;;;;;;5042590;27;92214;-76
2022/04/26 05:39:00;;;;;;;14.00;7.47;;;;;;;;;;5039100;27;89437;-76
2022/04/26 05:41:26;;;;;;;17.15;7.95;;;;;;;;;;5043044;27;90302;-76
2022/04/26 05:43:54;;;;;;;14.35;7.05;;;;;;;;;;5048435;27;89300;-76
2022/04/26 05:46:20;;;;;;;10.85;7.28;;;;;;;;;;5042659;27;89616;-76
2022/04/26 05:48:46;;;;;;;11.90;8.32;;;;;;;;;;5043647;27;89829;-76
2022/04/26 05:51:13;;;;;;;20.25;7.93;;;;;;;;;;5042691;27;90422;-76
2022/04/26 05:53:40;;;;;;;14.73;8.35;;;;;;;;;;5044612;27;89674;-76
2022/04/26 05:56:08;;;;;;;18.40;7.53;;;;;;;;;;5042029;27;89532;-76
2022/04/26 05:58:35;;;;;;;11.23;6.20;;;;;;;;;;5045837;27;90416;-76
2022/04/26 06:01:02;;;;;;;14.63;6.32;;;;;;;;;;5041069;27;89548;-76
2022/04/26 06:03:29;;;;;;;12.82;6.60;;;;;;;;;;5041191;27;89617;-76
2022/04/26 06:05:57;;;;;;;12.52;6.03;;;;;;;;;;5043520;27;89537;-77
2022/04/26 06:08:23;;;;;;;15.95;6.32;;;;;;;;;;5040890;27;89416;-76
2022/04/26 06:10:49;;;;;;;15.30;7.13;;;;;;;;;;5041138;27;89895;-76
2022/04/26 06:13:16;;;;;;;11.27;5.80;;;;;;;;;;5047056;27;89092;-76
2022/04/26 06:15:42;;;;;;;15.68;6.10;;;;;;;;;;5042881;27;89685;-76
2022/04/26 06:18:08;;;;;;;11.43;5.63;;;;;;;;;;5045065;27;87865;-77
2022/04/26 06:20:35;;;;;;;11.82;5.68;;;;;;;;;;5057326;27;88829;-77
2022/04/26 06:23:02;;;;;;;18.77;6.97;;;;;;;;;;5080086;27;90714;-79
2022/04/26 06:25:28;;;;;;;16.35;5.18;;;;;;;;;;5067768;27;88876;-77
2022/04/26 06:27:54;;;;;;;12.27;5.55;;;;;;;;;;5057365;27;89555;-76
2022/04/26 06:30:23;;;;;;;13.13;6.10;;;;;;;;;;5047092;27;88879;-77
2022/04/26 06:32:49;;;;;;;16.98;5.82;;;;;;;;;;5056284;27;88513;-77
2022/04/26 06:35:15;;;;;;;10.25;5.80;;;;;;;;;;5073704;27;87969;-77
2022/04/26 06:37:42;;;;;;;10.57;4.72;;;;;;;;;;5063458;27;89624;-78
2022/04/26 06:40:08;;;;;;;14.95;5.80;;;;;;;;;;5057319;27;90035;-78
2022/04/26 06:42:35;;;;;;;7.78;4.45;;;;;;;;;;5049565;27;88999;-77
2022/04/26 06:45:01;;;;;;;10.88;3.78;;;;;;;;;;5038738;27;88417;-77
2022/04/26 06:47:27;;;;;;;11.57;4.63;;;;;;;;;;5048955;27;89682;-76
2022/04/26 06:49:54;;;;;;;5.78;4.05;;;;;;;;;;5047331;27;89866;-76
2022/04/26 06:52:20;;;;;;;9.98;4.53;;;;;;;;;;5042709;27;90331;-76
2022/04/26 06:54:47;;;;;;;11.73;4.90;;;;;;;;;;5043148;27;89868;-76
2022/04/26 06:57:13;;;;;;;14.50;5.10;;;;;;;;;;5049100;27;88845;-76
2022/04/26 06:59:40;;;;;;;7.75;3.95;;;;;;;;;;5043765;27;88726;-76
2022/04/26 07:02:06;;;;;;;14.25;4.63;;;;;;;;;;5043181;27;90496;-76
2022/04/26 07:04:33;;;;;;;8.60;4.30;;;;;;;;;;5044234;27;88704;-76
2022/04/26 07:07:00;;;;;;;8.98;4.40;;;;;;;;;;5043935;27;89550;-76
2022/04/26 07:09:27;;;;;;;7.97;3.85;;;;;;;;;;5044178;27;89855;-76
2022/04/26 07:11:53;;;;;;;16.35;4.95;;;;;;;;;;5049041;27;88161;-76
2022/04/26 07:14:20;;;;;;;12.50;4.85;;;;;;;;;;5043601;27;90312;-76
2022/04/26 07:16:49;;;;;;;7.85;4.35;;;;;;;;;;5040179;27;90072;-77
2022/04/26 07:19:17;;;;;;;5.20;3.28;;;;;;;;;;5040903;27;88948;-76
2022/04/26 07:21:48;;;;;;;6.80;4.75;;;;;;;;;;5041893;27;89108;-76
2022/04/26 07:24:32;;;;;;;9.48;4.80;;;;;;;;;;5045962;27;89080;-76
2022/04/26 07:26:59;;;;;;;7.05;3.90;;;;;;;;;;5045380;27;89905;-77
2022/04/26 07:29:26;;;;;;;9.80;4.68;;;;;;;;;;5043869;27;89163;-77
2022/04/26 07:31:52;;;;;;;9.73;4.50;;;;;;;;;;5048831;27;87678;-77
2022/04/26 07:34:23;;;;;;;17.33;4.35;;;;;;;;;;5041042;27;88817;-77
2022/04/26 07:36:52;;;;;;;6.95;4.10;;;;;;;;;;5066968;27;88939;-77
2022/04/26 07:39:18;;;;;;;17.13;4.45;;;;;;;;;;5047813;27;89476;-77
2022/04/26 07:41:48;;;;;;;7.97;3.65;;;;;;;;;;5039857;27;89598;-77
2022/04/26 07:44:15;;;;;;;14.32;4.35;;;;;;;;;;5039866;27;89922;-77
2022/04/26 07:46:45;;;;;;;14.45;4.28;;;;;;;;;;5044263;27;89559;-77
2022/04/26 07:49:12;;;;;;;12.30;4.13;;;;;;;;;;5044122;27;89169;-77
2022/04/26 07:51:38;;;;;;;10.15;4.32;;;;;;;;;;5044366;27;88782;-77
2022/04/26 07:54:06;;;;;;;10.13;4.05;;;;;;;;;;5061096;27;88587;-75
2022/04/26 07:56:32;;;;;;;7.95;4.68;;;;;;;;;;5055715;27;88737;-76
2022/04/26 07:59:01;;;;;;;14.10;4.93;;;;;;;;;;5056713;27;88093;-76
2022/04/26 08:01:28;;;;;;;4.65;3.90;;;;;;;;;;5044917;27;89906;-77
2022/04/26 08:03:55;;;;;;;8.13;4.40;;;;;;;;;;5055938;27;89127;-76
2022/04/26 08:06:22;;;;;;;7.10;3.60;;;;;;;;;;5055345;27;90085;-75
2022/04/26 08:08:48;;;;;;;7.93;3.97;;;;;;;;;;5057974;27;89833;-76
2022/04/26 08:11:15;;;;;;;6.57;3.80;;;;;;;;;;5044800;27;88504;-76
2022/04/26 08:13:42;;;;;;;16.80;4.40;;;;;;;;;;5057725;27;89650;-76
2022/04/26 08:16:12;;;;;;;12.15;3.70;;;;;;;;;;5056305;27;89695;-76
2022/04/26 08:18:38;;;;;;;8.25;4.57;;;;;;;;;;5048468;27;89520;-75
2022/04/26 08:21:05;;;;;;;11.00;4.38;;;;;;;;;;5046134;27;88731;-75
2022/04/26 08:23:33;;;;;;;5.53;3.70;;;;;;;;;;5036368;28;88064;-75
2022/04/26 08:28:45;;;;;;;9.82;4.72;;;;;;;;;;5036494;28;90349;-75
2022/04/26 08:31:12;;;;;;;9.65;4.20;;;;;;;;;;5045151;27;89242;-75
2022/04/26 08:33:38;;;;;;;11.65;4.32;;;;;;;;;;5037873;27;88403;-75
2022/04/26 08:36:06;;;;;;;11.05;3.95;;;;;;;;;;5048592;27;88718;-75
2022/04/26 08:38:32;;;;;;;10.48;5.50;;;;;;;;;;5057829;27;88087;-75
2022/04/26 08:40:59;;;;;;;8.73;4.53;;;;;;;;;;5045998;27;89822;-75
2022/04/26 08:43:27;;;;;;;10.52;4.80;;;;;;;;;;5055906;27;89010;-75
2022/04/26 08:45:58;;;;;;;5.30;3.67;;;;;;;;;;5036627;28;89629;-75
2022/04/26 08:51:11;;;;;;;11.98;4.82;;;;;;;;;;5055047;27;88072;-75
2022/04/26 08:53:38;;;;;;;6.78;3.58;;;;;;;;;;5054002;27;90661;-75
2022/04/26 08:56:06;;;;;;;6.93;3.78;;;;;;;;;;5056428;27;89519;-75
2022/04/26 08:58:34;;;;;;;10.52;4.45;;;;;;;;;;5055056;27;88584;-75
2022/04/26 09:01:12;;;;;;;5.43;3.90;;;;;;;;;;5038833;28;89638;-76
2022/04/26 09:03:54;;;;;;;8.90;3.72;;;;;;;;;;5035589;28;88154;-76
2022/04/26 09:06:38;;;;;;;5.68;4.00;;;;;;;;;;5035210;28;88556;-77
2022/04/26 09:09:15;;;;;;;7.40;4.22;;;;;;;;;;5038287;27;89577;-78
2022/04/26 09:11:42;;;;;;;7.50;4.10;;;;;;;;;;5046925;27;88607;-74
2022/04/26 09:14:10;;;;;;;8.30;4.00;;;;;;;;;;5048038;27;88857;-76
2022/04/26 09:16:36;;;;;;;4.82;4.35;;;;;;;;;;5047293;27;88831;-76
2022/04/26 09:19:07;;;;;;;4.20;3.67;;;;;;;;;;5053110;27;88903;-77
2022/04/26 09:21:34;;;;;;;8.50;3.90;;;;;;;;;;5016443;28;92041;-77
2022/04/26 09:24:04;;;;;;;9.07;4.55;;;;;;;;;;5041250;27;89752;-77
2022/04/26 09:26:34;;;;;;;6.60;4.05;;;;;;;;;;5036259;27;90587;-76
2022/04/26 09:29:00;;;;;;;8.05;3.88;;;;;;;;;;5035476;28;90025;-77
2022/04/26 09:31:28;;;;;;;5.78;4.60;;;;;;;;;;5046085;27;88594;-77
2022/04/26 09:33:57;;;;;;;4.55;3.03;;;;;;;;;;5052078;27;88434;-77
2022/04/26 09:36:24;;;;;;;14.82;3.63;;;;;;;;;;5036073;28;88036;-78
2022/04/26 09:38:52;;;;;;;12.75;4.47;;;;;;;;;;5040140;27;89828;-77
2022/04/26 09:41:19;;;;;;;6.82;3.80;;;;;;;;;;5035841;27;89456;-77
2022/04/26 09:43:58;;;;;;;7.90;3.75;;;;;;;;;;5037310;27;89314;-77
2022/04/26 09:46:24;;;;;;;4.05;3.10;;;;;;;;;;5038513;28;88014;-77
2022/04/26 09:48:51;;;;;;;4.28;2.97;;;;;;;;;;5046774;27;90634;-77
2022/04/26 09:51:18;;;;;;;6.13;3.35;;;;;;;;;;5037283;27;89435;-77
2022/04/26 09:53:44;;;;;;;3.20;2.78;;;;;;;;;;5037660;27;88491;-77
2022/04/26 09:56:12;;;;;;;8.48;3.95;;;;;;;;;;5035468;28;89978;-77
2022/04/26 09:58:49;;;;;;;4.75;3.45;;;;;;;;;;5045701;27;88938;-77
2022/04/26 10:01:15;;;;;;;7.22;3.30;;;;;;;;;;5045978;27;88618;-77
2022/04/26 10:03:43;;;;;;;4.30;3.03;;;;;;;;;;5046721;27;88729;-77
2022/04/26 10:06:16;;;;;;;4.93;3.03;;;;;;;;;;5048555;27;88817;-76
2022/04/26 10:08:42;;;;;;;3.22;2.50;;;;;;;;;;5043728;27;90102;-76
2022/04/26 10:11:09;;;;;;;5.80;2.45;;;;;;;;;;5042335;27;88319;-76
2022/04/26 10:13:39;;;;;;;3.72;2.60;;;;;;;;;;5044758;27;89859;-77
2022/04/26 10:16:07;;;;;;;8.13;2.42;;;;;;;;;;5055399;27;89834;-76
2022/04/26 10:18:38;;;;;;;2.28;2.17;;;;;;;;;;5039536;27;89193;-77
2022/04/26 10:21:05;;;;;;;2.75;2.30;;;;;;;;;;5035939;28;89498;-74
2022/04/26 10:23:50;;;;;;;6.65;2.83;;;;;;;;;;5044897;27;89766;-77
2022/04/26 10:26:23;;;;;;;4.30;3.00;;;;;;;;;;5043524;27;87743;-76
2022/04/26 10:28:52;;;;;;;7.63;2.95;;;;;;;;;;5046918;27;89047;-77
2022/04/26 10:31:32;;;;;;;4.53;2.67;;;;;;;;;;5051499;27;90019;-77
2022/04/26 10:34:00;;;;;;;5.95;3.10;;;;;;;;;;5045479;27;89525;-77
2022/04/26 10:36:26;;;;;;;4.35;2.58;;;;;;;;;;5047385;27;91055;-76
2022/04/26 10:39:05;;;;;;;5.55;2.78;;;;;;;;;;5042459;27;88558;-76
2022/04/26 10:41:35;;;;;;;6.82;2.40;;;;;;;;;;5038544;28;88612;-77
2022/04/26 10:44:15;;;;;;;4.18;2.58;;;;;;;;;;5046424;27;89219;-77
2022/04/26 10:46:43;;;;;;;5.32;2.78;;;;;;;;;;5054906;27;89875;-77
2022/04/26 10:49:38;;;;;;;9.25;3.05;;;;;;;;;;5037268;27;89793;-77
2022/04/26 10:52:14;;;;;;;3.97;3.08;;;;;;;;;;5046294;27;90536;-77
2022/04/26 10:54:46;;;;;;;7.53;3.00;;;;;;;;;;5041045;27;89156;-77
2022/04/26 10:57:13;;;;;;;8.63;3.10;;;;;;;;;;5041792;27;90154;-77
2022/04/26 10:59:40;;;;;;;4.95;2.55;;;;;;;;;;5040912;27;90017;-77
2022/04/26 11:02:09;;;;;;;7.18;2.90;;;;;;;;;;5049689;27;90521;-76
2022/04/26 11:04:35;;;;;;;3.92;2.75;;;;;;;;;;5056461;27;89474;-76
2022/04/26 11:07:11;;;;;;;7.13;2.60;;;;;;;;;;5048463;27;88743;-76
2022/04/26 11:09:44;;;;;;;4.90;2.78;;;;;;;;;;5037569;27;89559;-76
2022/04/26 11:12:10;;;;;;;5.25;3.15;;;;;;;;;;5045956;27;89801;-76
2022/04/26 11:14:40;;;;;;;3.30;2.28;;;;;;;;;;5050081;27;90288;-77
2022/04/26 11:17:06;;;;;;;8.82;2.60;;;;;;;;;;5044187;27;87321;-77
2022/04/26 11:19:36;;;;;;;4.38;2.30;;;;;;;;;;5041679;27;89083;-77
2022/04/26 11:22:04;;;;;;;3.88;2.63;;;;;;;;;;5043086;27;89566;-77
2022/04/26 11:30:02;;;;;;;8.02;3.20;;;;;;;;;;5040854;27;88649;-76
2022/04/26 11:32:28;;;;;;;3.42;2.72;;;;;;;;;;5044187;27;89791;-77
2022/04/26 11:34:54;;;;;;;3.22;2.40;;;;;;;;;;5042082;27;89024;-76
2022/04/26 11:37:21;;;;;;;6.50;2.15;;;;;;;;;;5048875;27;89660;-75
2022/04/26 11:39:47;;;;;;;2.60;2.40;;;;;;;;;;5043652;27;89614;-77
2022/04/26 11:42:14;;;;;;;3.08;2.05;;;;;;;;;;5042920;27;89696;-77
2022/04/26 11:44:56;;;;;;;3.50;1.92;;;;;;;;;;5045624;27;88107;-77
2022/04/26 11:47:36;;;;;;;7.88;2.63;;;;;;;;;;5046293;27;89855;-77
2022/04/26 11:50:32;;;;;;;3.33;2.42;;;;;;;;;;5043301;27;91813;-77
2022/04/26 11:53:00;;;;;;;3.67;2.70;;;;;;;;;;5020370;27;89765;-77
2022/04/26 11:55:26;;;;;;;2.28;1.83;;;;;;;;;;5040152;27;89251;-77
2022/04/26 11:58:03;;;;;;;7.07;2.60;;;;;;;;;;5048742;27;89517;-77
2022/04/26 12:00:30;;;;;;;3.20;2.20;;;;;;;;;;5040221;27;90323;-76
2022/04/26 12:02:57;;;;;;;2.38;2.20;;;;;;;;;;5044659;27;88113;-77
2022/04/26 12:05:23;;;;;;;2.33;2.13;;;;;;;;;;5057706;27;89653;-77
2022/04/26 12:07:50;;;;;;;3.35;2.90;;;;;;;;;;5039831;27;88778;-77
2022/04/26 12:10:32;;;;;;;3.55;2.40;;;;;;;;;;5035923;27;88962;-77
2022/04/26 12:13:01;;;;;;;3.88;2.95;;;;;;;;;;5043279;27;89106;-77
2022/04/26 12:15:40;;;;;;;3.60;2.55;;;;;;;;;;5040800;27;89645;-77
2022/04/26 12:18:11;;;;;;;2.03;1.92;;;;;;;;;;5039294;27;89355;-77
2022/04/26 12:20:54;;;;;;;2.00;1.90;;;;;;;;;;5043002;27;89172;-77
2022/04/26 12:23:21;;;;;;;5.28;2.70;;;;;;;;;;5040922;27;88951;-77
2022/04/26 12:25:51;;;;;;;7.93;2.58;;;;;;;;;;5047119;27;90251;-75
2022/04/26 12:28:18;;;;;;;3.33;2.50;;;;;;;;;;5041595;27;89611;-76
2022/04/26 12:30:44;;;;;;;3.65;2.40;;;;;;;;;;5042115;27;89266;-77
2022/04/26 12:33:11;;;;;;;3.55;2.70;;;;;;;;;;5058526;27;87928;-77
2022/04/26 12:35:37;;;;;;;3.90;2.50;;;;;;;;;;5057228;27;88875;-77
2022/04/26 12:38:07;;;;;;;6.10;2.90;;;;;;;;;;5038200;27;89582;-77
2022/04/26 12:40:34;;;;;;;5.50;2.45;;;;;;;;;;5041279;27;90546;-75
2022/04/26 12:43:01;;;;;;;4.57;2.38;;;;;;;;;;5044135;27;88602;-76
2022/04/26 12:45:27;;;;;;;3.58;2.78;;;;;;;;;;5039024;27;89031;-77
2022/04/26 12:50:54;;;;;;;2.38;2.17;;;;;;;;;;5038578;27;89302;-77
2022/04/26 12:53:23;;;;;;;3.25;2.40;;;;;;;;;;5039999;27;90592;-77
2022/04/26 12:55:49;;;;;;;2.00;1.90;;;;;;;;;;5047601;27;88142;-77
2022/04/26 12:58:17;;;;;;;4.10;1.85;;;;;;;;;;5045026;27;89593;-76
2022/04/26 13:00:44;;;;;;;1.85;1.67;;;;;;;;;;5038466;27;89909;-77
2022/04/26 13:03:12;;;;;;;3.47;2.47;;;;;;;;;;5043425;27;88722;-76
2022/04/26 13:05:41;;;;;;;1.88;1.75;;;;;;;;;;5045206;27;92155;-77
2022/04/26 13:08:08;;;;;;;2.17;2.08;;;;;;;;;;5042393;27;90144;-77
2022/04/26 13:10:34;;;;;;;4.32;2.08;;;;;;;;;;5039310;27;88684;-77
2022/04/26 13:13:01;;;;;;;8.18;1.90;;;;;;;;;;5043138;27;89299;-76
2022/04/26 13:15:27;;;;;;;3.00;1.92;;;;;;;;;;5044311;27;90665;-76
2022/04/26 13:17:54;;;;;;;4.05;1.95;;;;;;;;;;5039006;27;88066;-76
2022/04/26 13:20:20;;;;;;;4.57;2.50;;;;;;;;;;5039624;27;88713;-77
2022/04/26 13:22:46;;;;;;;3.70;2.33;;;;;;;;;;5043776;27;90397;-76
2022/04/26 13:25:13;;;;;;;2.90;2.55;;;;;;;;;;5046168;27;90051;-76
2022/04/26 13:27:39;;;;;;;14.15;4.30;;;;;;;;;;5045060;27;89927;-76
2022/04/26 13:30:06;;;;;;;4.18;2.28;;;;;;;;;;5044290;27;89162;-76
2022/04/26 13:32:33;;;;;;;2.40;2.20;;;;;;;;;;5039656;27;90191;-76
2022/04/26 13:35:00;;;;;;;2.40;2.25;;;;;;;;;;5038106;27;90796;-76
2022/04/26 13:37:29;;;;;;;2.58;2.38;;;;;;;;;;5038097;27;88829;-78
2022/04/26 13:39:58;;;;;;;5.72;2.60;;;;;;;;;;5040389;27;89264;-76
2022/04/26 13:42:25;;;;;;;3.67;2.42;;;;;;;;;;5045644;27;88205;-77
2022/04/26 13:44:52;;;;;;;3.83;2.40;;;;;;;;;;5044763;27;89752;-77
2022/04/26 13:47:19;;;;;;;5.97;2.60;;;;;;;;;;5041364;27;88976;-77
2022/04/26 13:49:45;;;;;;;2.25;2.15;;;;;;;;;;5048843;27;89238;-77
2022/04/26 13:52:13;;;;;;;2.55;2.33;;;;;;;;;;5043194;27;89986;-77
2022/04/26 13:54:42;;;;;;;3.50;2.10;;;;;;;;;;5053335;27;89162;-77
2022/04/26 13:57:09;;;;;;;2.50;2.30;;;;;;;;;;5049303;27;89382;-77
2022/04/26 13:59:36;;;;;;;3.85;2.17;;;;;;;;;;5047632;27;89026;-77
2022/04/26 14:02:04;;;;;;;4.82;2.80;;;;;;;;;;5056487;27;88076;-77
2022/04/26 14:04:30;;;;;;;2.05;1.95;;;;;;;;;;5047533;27;89325;-77
2022/04/26 14:06:57;;;;;;;1.90;1.80;;;;;;;;;;5048830;27;89848;-77
2022/04/26 14:09:23;;;;;;;2.03;1.90;;;;;;;;;;5057227;27;88386;-77
2022/04/26 14:11:51;;;;;;;2.55;2.30;;;;;;;;;;5058617;27;88167;-77
2022/04/26 14:22:32;;;;;;;1.77;1.67;;;;;;;;;;5037721;28;88030;-75
2022/04/26 14:25:03;;;;;;;1.48;1.38;;;;;;;;;;5037315;27;88945;-77
2022/04/26 14:27:30;;;;;;;1.67;1.55;;;;;;;;;;5046133;27;90861;-77
2022/04/26 14:29:56;;;;;;;1.38;1.33;;;;;;;;;;5047381;27;88995;-76
2022/04/26 14:32:23;;;;;;;3.90;2.17;;;;;;;;;;5067975;27;89664;-77
2022/04/26 14:34:49;;;;;;;1.35;1.35;;;;;;;;;;5047946;27;88101;-78
2022/04/26 14:37:17;;;;;;;1.90;1.45;;;;;;;;;;5056343;27;88471;-78
2022/04/26 14:39:43;;;;;;;1.50;1.40;;;;;;;;;;5056107;27;89564;-77
2022/04/26 14:42:10;;;;;;;2.28;1.63;;;;;;;;;;5049949;27;89116;-77
2022/04/26 14:44:36;;;;;;;1.80;1.70;;;;;;;;;;5044276;27;90170;-76
2022/04/26 14:47:03;;;;;;;1.85;1.75;;;;;;;;;;5041240;27;89729;-77
2022/04/26 14:49:30;;;;;;;1.92;1.77;;;;;;;;;;5042791;27;91918;-77
2022/04/26 14:51:57;;;;;;;3.30;1.90;;;;;;;;;;5046711;27;88734;-76
2022/04/26 14:54:43;;;;;;;4.30;1.60;;;;;;;;;;5044642;27;89697;-76
2022/04/26 14:57:10;;;;;;;1.83;1.70;;;;;;;;;;5042574;27;88901;-77
2022/04/26 14:59:45;;;;;;;3.00;1.98;;;;;;;;;;5044373;27;89523;-77
2022/04/26 15:02:13;;;;;;;4.43;2.00;;;;;;;;;;5040148;27;88098;-77
2022/04/26 15:04:40;;;;;;;3.08;2.38;;;;;;;;;;5040072;27;88039;-77
2022/04/26 15:07:06;;;;;;;3.75;2.10;;;;;;;;;;5039826;27;89303;-77
2022/04/26 15:09:51;;;;;;;3.45;2.40;;;;;;;;;;5049764;27;90142;-77
2022/04/26 15:17:49;;;;;;;3.13;2.60;;;;;;;;;;5054300;27;88232;-77
2022/04/26 15:20:17;;;;;;;2.33;2.22;;;;;;;;;;5037464;27;90551;-77
2022/04/26 15:22:44;;;;;;;3.17;2.35;;;;;;;;;;5040499;27;88734;-77
2022/04/26 15:25:10;;;;;;;2.67;1.85;;;;;;;;;;5040906;27;88873;-77
2022/04/26 15:27:40;;;;;;;5.07;2.60;;;;;;;;;;5043255;27;88862;-77
2022/04/26 15:30:07;;;;;;;10.80;3.25;;;;;;;;;;5058582;27;89326;-77
2022/04/26 15:32:34;;;;;;;4.25;3.03;;;;;;;;;;5064720;27;89674;-77
2022/04/26 15:35:00;;;;;;;2.67;2.47;;;;;;;;;;5056469;27;88785;-77
2022/04/26 15:37:33;;;;;;;2.92;2.60;;;;;;;;;;5056592;27;88913;-77
2022/04/26 15:39:59;;;;;;;3.53;2.42;;;;;;;;;;5060780;27;88765;-77
2022/04/26 15:42:25;;;;;;;2.88;2.60;;;;;;;;;;5055529;27;88482;-77
2022/04/26 15:44:52;;;;;;;4.05;2.40;;;;;;;;;;5042569;27;90236;-77
2022/04/26 15:47:18;;;;;;;6.78;2.90;;;;;;;;;;5039407;27;88864;-77
2022/04/26 15:49:45;;;;;;;3.20;2.90;;;;;;;;;;5057051;27;89569;-77
2022/04/26 15:52:11;;;;;;;6.03;3.08;;;;;;;;;;5048856;27;87992;-77
2022/04/26 15:54:37;;;;;;;3.65;2.70;;;;;;;;;;5037317;27;89603;-77
2022/04/26 15:57:04;;;;;;;3.53;3.13;;;;;;;;;;5058596;27;88074;-77
2022/04/26 15:59:30;;;;;;;4.80;2.55;;;;;;;;;;5053955;27;88779;-77
2022/04/26 16:01:57;;;;;;;3.97;2.40;;;;;;;;;;5043851;27;89263;-77
2022/04/26 16:04:24;;;;;;;3.13;2.83;;;;;;;;;;5053760;27;89785;-77
2022/04/26 16:06:50;;;;;;;3.38;2.58;;;;;;;;;;5054957;27;89811;-77
2022/04/26 16:20:29;;;;;;;3.47;2.30;;;;;;;;;;5036778;27;88472;-77
2022/04/26 16:23:05;;;;;;;4.72;2.50;;;;;;;;;;5040558;27;88599;-77
2022/04/26 16:25:32;;;;;;;7.43;2.67;;;;;;;;;;5036747;28;89478;-76
2022/04/26 16:28:00;;;;;;;3.20;2.78;;;;;;;;;;5045117;27;89005;-77
2022/04/26 16:30:29;;;;;;;3.03;2.58;;;;;;;;;;5041031;27;89550;-76
2022/04/26 16:32:58;;;;;;;5.00;2.63;;;;;;;;;;5043291;27;88592;-77
2022/04/26 16:35:25;;;;;;;5.40;2.95;;;;;;;;;;5037925;27;89786;-77
2022/04/26 16:37:55;;;;;;;2.97;2.60;;;;;;;;;;5046327;27;88752;-76
2022/04/26 16:40:21;;;;;;;2.58;2.35;;;;;;;;;;5038989;27;89777;-77
2022/04/26 16:42:48;;;;;;;3.88;2.08;;;;;;;;;;5042759;27;89062;-76
2022/04/26 16:45:14;;;;;;;5.07;2.85;;;;;;;;;;5042220;27;88485;-75
2022/04/26 16:47:41;;;;;;;4.13;2.60;;;;;;;;;;5044931;27;90753;-76
2022/04/26 16:50:07;;;;;;;3.92;2.72;;;;;;;;;;5039196;27;90721;-75
2022/04/26 16:52:37;;;;;;;2.50;2.30;;;;;;;;;;5038084;27;90256;-76
2022/04/26 16:55:04;;;;;;;5.50;3.10;;;;;;;;;;5043688;27;89063;-75
2022/04/26 16:57:31;;;;;;;8.73;3.90;;;;;;;;;;5039438;27;88859;-75
2022/04/26 16:59:58;;;;;;;4.65;3.50;;;;;;;;;;5034837;27;89593;-76
2022/04/26 17:02:25;;;;;;;5.38;3.00;;;;;;;;;;5039862;27;89023;-76
2022/04/26 17:04:52;;;;;;;4.05;2.67;;;;;;;;;;5038255;27;89770;-75
2022/04/26 17:07:19;;;;;;;6.10;2.78;;;;;;;;;;5046571;27;89559;-75
2022/04/26 17:09:46;;;;;;;3.35;2.83;;;;;;;;;;5042686;27;88139;-76
2022/04/26 17:12:14;;;;;;;4.25;2.83;;;;;;;;;;5042480;27;89861;-76
2022/04/26 17:14:41;;;;;;;5.63;2.60;;;;;;;;;;5040325;27;90391;-76
2022/04/26 17:17:08;;;;;;;3.50;2.55;;;;;;;;;;5040252;27;89994;-77
2022/04/26 17:19:34;;;;;;;7.13;2.72;;;;;;;;;;5043198;27;88855;-76
2022/04/26 17:22:01;;;;;;;8.98;3.65;;;;;;;;;;5043379;27;89684;-76
2022/04/26 17:27:12;;;;;;;3.40;3.10;;;;;;;;;;5042940;27;89799;-77
2022/04/26 17:29:39;;;;;;;6.00;3.20;;;;;;;;;;5045109;27;91599;-76
2022/04/26 17:32:05;;;;;;;6.45;3.30;;;;;;;;;;5045805;27;89982;-76
2022/04/26 17:34:31;;;;;;;6.88;3.00;;;;;;;;;;5042745;27;89762;-77
2022/04/26 17:36:58;;;;;;;5.00;3.05;;;;;;;;;;5036859;27;89272;-77
2022/04/26 17:39:35;;;;;;;5.07;2.67;;;;;;;;;;5037269;27;90493;-77
2022/04/26 17:42:01;;;;;;;6.60;4.10;;;;;;;;;;5040201;27;89970;-77
2022/04/26 17:44:28;;;;;;;3.22;2.97;;;;;;;;;;5046491;27;90092;-77
2022/04/26 17:46:54;;;;;;;6.28;3.03;;;;;;;;;;5042261;27;89532;-77
2022/04/26 17:49:42;;;;;;;5.40;3.63;;;;;;;;;;5037708;27;89662;-77
2022/04/26 17:52:08;;;;;;;4.93;3.25;;;;;;;;;;5040040;27;89402;-77
2022/04/26 17:57:20;;;;;;;4.60;3.40;;;;;;;;;;5046220;27;88787;-76
2022/04/26 17:59:46;;;;;;;3.67;3.20;;;;;;;;;;5055815;27;88316;-76
2022/04/26 18:02:13;;;;;;;10.43;3.70;;;;;;;;;;5053732;27;89057;-76
2022/04/26 18:04:40;;;;;;;3.67;2.80;;;;;;;;;;5048355;27;88790;-76
2022/04/26 18:07:07;;;;;;;6.72;3.28;;;;;;;;;;5039161;27;88985;-77
2022/04/26 18:09:34;;;;;;;11.10;3.88;;;;;;;;;;5037895;27;91191;-77
2022/04/26 18:12:00;;;;;;;4.65;3.08;;;;;;;;;;5051330;27;88782;-77
2022/04/26 18:14:27;;;;;;;6.68;3.17;;;;;;;;;;5040771;27;89582;-78
2022/04/26 18:16:53;;;;;;;11.35;3.28;;;;;;;;;;5041544;27;88146;-78
2022/04/26 18:19:19;;;;;;;8.60;2.92;;;;;;;;;;5041991;27;88655;-78
2022/04/26 18:21:46;;;;;;;6.47;3.10;;;;;;;;;;5050752;27;90203;-77
2022/04/26 18:24:12;;;;;;;4.88;3.65;;;;;;;;;;5046284;27;88771;-77
2022/04/26 18:26:40;;;;;;;5.05;3.50;;;;;;;;;;5069809;27;89115;-78
2022/04/26 18:29:08;;;;;;;5.45;3.20;;;;;;;;;;5054587;27;89567;-78
2022/04/26 18:31:36;;;;;;;6.25;3.20;;;;;;;;;;5050727;27;88670;-79
2022/04/26 18:34:03;;;;;;;6.45;2.95;;;;;;;;;;5049006;27;88613;-77
2022/04/26 18:36:32;;;;;;;3.72;3.28;;;;;;;;;;5058550;27;88146;-78
2022/04/26 18:38:59;;;;;;;6.97;3.28;;;;;;;;;;5060687;27;89604;-78
2022/04/26 18:41:27;;;;;;;6.47;3.58;;;;;;;;;;5049401;27;90227;-78
2022/04/26 18:43:55;;;;;;;5.57;3.25;;;;;;;;;;5043280;27;89778;-80
2022/04/26 18:46:21;;;;;;;5.35;3.30;;;;;;;;;;5045043;27;88874;-79
2022/04/26 18:48:49;;;;;;;5.10;2.92;;;;;;;;;;5041089;27;88854;-79
2022/04/26 18:51:15;;;;;;;7.20;3.15;;;;;;;;;;5042453;27;89015;-79
2022/04/26 18:53:41;;;;;;;3.33;3.00;;;;;;;;;;5037754;27;90240;-78
2022/04/26 18:56:08;;;;;;;22.42;9.38;;;;;;;;;;5042633;27;90559;-79
2022/04/26 18:58:35;;;;;;;6.20;3.50;;;;;;;;;;5038861;27;90131;-79
2022/04/26 19:01:02;;;;;;;8.93;3.67;;;;;;;;;;5038962;27;89668;-79
2022/04/26 19:03:29;;;;;;;8.65;4.43;;;;;;;;;;5042292;27;88662;-79
2022/04/26 19:06:02;;;;;;;4.88;3.70;;;;;;;;;;5038458;27;89557;-79